Time;durP1;ratioP1;P1;durP2;ratioP2;P2;SDS_P1;SDS_P2;PMS_P1;PMS_P2;Temp;Humidity;BMP_temperature;BMP_pressure;BME280_temperature;BME280_humidity;BME280_pressure;Samples;Min_cycle;Max_cycle;Signal;HPM_P1;HPM_P2
2024/03/22 00:01:49;;;;;;;17.80;11.35;;;;;;;;;;6286323;22;20040;-74
2024/03/22 00:04:15;;;;;;;18.67;10.43;;;;;;;;;;6285807;22;20062;-74
2024/03/22 00:06:41;;;;;;;16.00;9.18;;;;;;;;;;6208414;23;20020;-75
2024/03/22 00:09:08;;;;;;;15.07;10.43;;;;;;;;;;6313238;22;20372;-74
2024/03/22 00:11:33;;;;;;;19.38;9.70;;;;;;;;;;6313623;22;20448;-74
2024/03/22 00:13:59;;;;;;;18.75;9.70;;;;;;;;;;6311904;22;20428;-75
2024/03/22 00:16:25;;;;;;;17.98;9.20;;;;;;;;;;6210281;23;20095;-73
2024/03/22 00:18:51;;;;;;;20.85;9.68;;;;;;;;;;6209182;23;20361;-75
2024/03/22 00:21:17;;;;;;;12.68;9.27;;;;;;;;;;6209625;23;20012;-74
2024/03/22 00:23:43;;;;;;;14.23;9.82;;;;;;;;;;6289054;22;20406;-74
2024/03/22 00:26:09;;;;;;;14.68;10.25;;;;;;;;;;6214370;23;20027;-75
2024/03/22 00:28:35;;;;;;;15.30;9.45;;;;;;;;;;6217789;23;20009;-74
2024/03/22 00:31:00;;;;;;;13.48;7.32;;;;;;;;;;6215699;23;20069;-75
2024/03/22 00:33:26;;;;;;;25.85;9.43;;;;;;;;;;6213331;22;20025;-75
2024/03/22 00:35:52;;;;;;;20.23;11.45;;;;;;;;;;6210043;23;20410;-75
2024/03/22 00:38:18;;;;;;;18.33;9.30;;;;;;;;;;6208871;23;20013;-74
2024/03/22 00:40:44;;;;;;;20.00;10.90;;;;;;;;;;6313426;22;20020;-75
2024/03/22 00:43:09;;;;;;;16.92;9.90;;;;;;;;;;6206930;22;20068;-75
2024/03/22 00:45:36;;;;;;;23.38;12.13;;;;;;;;;;6207910;23;20040;-74
2024/03/22 00:48:01;;;;;;;30.63;13.43;;;;;;;;;;6207814;23;20464;-75
2024/03/22 00:50:28;;;;;;;26.92;13.45;;;;;;;;;;6208085;23;20016;-73
2024/03/22 00:52:56;;;;;;;20.40;12.27;;;;;;;;;;6286316;22;20027;-75
2024/03/22 00:55:22;;;;;;;23.00;13.45;;;;;;;;;;6207820;22;20005;-74
2024/03/22 00:57:48;;;;;;;22.35;12.80;;;;;;;;;;6207653;23;20016;-74
2024/03/22 01:00:15;;;;;;;15.95;9.82;;;;;;;;;;6260856;22;20051;-73
2024/03/22 01:02:41;;;;;;;19.17;11.85;;;;;;;;;;6207195;22;20097;-74
2024/03/22 01:05:07;;;;;;;24.40;11.85;;;;;;;;;;6207478;23;20457;-74
2024/03/22 01:07:33;;;;;;;13.35;9.82;;;;;;;;;;6313118;22;20021;-73
2024/03/22 01:09:58;;;;;;;14.15;11.02;;;;;;;;;;6208195;22;20008;-74
2024/03/22 01:12:25;;;;;;;11.63;7.75;;;;;;;;;;6312105;22;20481;-75
2024/03/22 01:14:51;;;;;;;15.73;9.20;;;;;;;;;;6209553;23;20009;-75
2024/03/22 01:17:17;;;;;;;13.73;8.15;;;;;;;;;;6312474;22;20040;-73
2024/03/22 01:19:43;;;;;;;8.27;6.45;;;;;;;;;;6208727;23;20138;-74
2024/03/22 01:22:08;;;;;;;17.90;9.65;;;;;;;;;;6312971;22;20516;-74
2024/03/22 01:24:34;;;;;;;18.95;10.32;;;;;;;;;;6313022;22;20091;-74
2024/03/22 01:27:00;;;;;;;29.08;12.38;;;;;;;;;;6207949;23;20495;-74
2024/03/22 01:29:27;;;;;;;25.58;12.65;;;;;;;;;;6208255;23;20009;-74
2024/03/22 01:31:53;;;;;;;24.00;12.25;;;;;;;;;;6206962;22;20464;-72
2024/03/22 01:34:19;;;;;;;19.80;11.65;;;;;;;;;;6207495;23;20009;-74
2024/03/22 01:36:45;;;;;;;18.17;11.10;;;;;;;;;;6260376;22;20008;-73
2024/03/22 01:39:11;;;;;;;18.52;11.82;;;;;;;;;;6312452;22;20052;-73
2024/03/22 01:41:37;;;;;;;23.52;12.65;;;;;;;;;;6311987;22;20017;-74
2024/03/22 01:44:03;;;;;;;21.27;11.85;;;;;;;;;;6206571;22;20023;-74
2024/03/22 01:46:29;;;;;;;24.17;12.95;;;;;;;;;;6310345;22;20024;-74
2024/03/22 01:48:54;;;;;;;29.83;13.57;;;;;;;;;;6312474;22;20040;-76
2024/03/22 01:51:20;;;;;;;26.15;12.13;;;;;;;;;;6207954;23;20020;-74
2024/03/22 01:53:46;;;;;;;14.88;10.57;;;;;;;;;;6310983;22;20017;-75
2024/03/22 01:56:12;;;;;;;15.98;11.43;;;;;;;;;;6310898;22;20702;-75
2024/03/22 01:58:38;;;;;;;20.40;12.13;;;;;;;;;;6312435;22;20019;-75
2024/03/22 02:01:04;;;;;;;13.68;7.95;;;;;;;;;;6207465;23;20020;-75
2024/03/22 02:03:30;;;;;;;25.08;14.00;;;;;;;;;;6206807;22;20073;-75
2024/03/22 02:05:59;;;;;;;24.88;13.68;;;;;;;;;;6311617;22;20032;-74
2024/03/22 02:08:25;;;;;;;27.40;15.45;;;;;;;;;;6261617;22;20092;-74
2024/03/22 02:10:52;;;;;;;20.17;13.55;;;;;;;;;;6209760;22;20012;-74
2024/03/22 02:13:18;;;;;;;27.77;12.90;;;;;;;;;;6310807;22;20039;-73
2024/03/22 02:15:44;;;;;;;27.42;14.60;;;;;;;;;;6286142;22;20008;-73
2024/03/22 02:18:30;;;;;;;25.45;14.05;;;;;;;;;;6294999;22;20017;-74
2024/03/22 02:20:59;;;;;;;25.15;14.15;;;;;;;;;;6311952;22;20009;-75
2024/03/22 02:23:37;;;;;;;42.92;16.15;;;;;;;;;;6206623;22;20031;-75
2024/03/22 02:26:04;;;;;;;30.00;16.27;;;;;;;;;;6285434;22;20477;-74
2024/03/22 02:28:30;;;;;;;24.95;14.57;;;;;;;;;;6310143;22;20005;-74
2024/03/22 02:30:56;;;;;;;22.95;15.45;;;;;;;;;;6207529;22;20008;-75
2024/03/22 02:33:21;;;;;;;19.77;11.82;;;;;;;;;;6206995;22;20373;-75
2024/03/22 02:35:47;;;;;;;23.58;15.30;;;;;;;;;;6311982;22;20286;-75
2024/03/22 02:38:13;;;;;;;20.58;14.88;;;;;;;;;;6338195;22;20013;-74
2024/03/22 02:40:39;;;;;;;29.10;15.63;;;;;;;;;;6206738;23;20016;-74
2024/03/22 02:43:05;;;;;;;25.63;16.65;;;;;;;;;;6206719;22;20495;-75
2024/03/22 02:45:31;;;;;;;27.33;16.25;;;;;;;;;;6312354;22;20016;-75
2024/03/22 02:47:57;;;;;;;26.80;16.85;;;;;;;;;;6311269;22;20033;-75
2024/03/22 02:50:22;;;;;;;18.23;12.60;;;;;;;;;;6311920;22;20040;-75
2024/03/22 02:52:49;;;;;;;31.05;19.17;;;;;;;;;;6207544;22;20049;-74
2024/03/22 02:55:15;;;;;;;36.38;18.33;;;;;;;;;;6207410;23;20804;-73
2024/03/22 02:57:40;;;;;;;34.00;19.00;;;;;;;;;;6312316;22;20019;-75
2024/03/22 03:00:06;;;;;;;36.90;19.50;;;;;;;;;;6311214;22;20009;-75
2024/03/22 03:02:32;;;;;;;29.27;18.25;;;;;;;;;;6311476;22;20046;-75
2024/03/22 03:04:58;;;;;;;32.53;17.58;;;;;;;;;;6208167;22;20095;-75
2024/03/22 03:07:24;;;;;;;20.92;15.23;;;;;;;;;;6314220;22;20024;-74
2024/03/22 03:09:50;;;;;;;22.45;11.98;;;;;;;;;;6338268;22;20345;-74
2024/03/22 03:12:16;;;;;;;13.32;11.75;;;;;;;;;;6286570;22;20013;-75
2024/03/22 03:14:42;;;;;;;12.32;11.05;;;;;;;;;;6210405;22;20459;-75
2024/03/22 03:17:07;;;;;;;21.98;13.60;;;;;;;;;;6206401;23;20456;-73
2024/03/22 03:19:34;;;;;;;19.83;10.20;;;;;;;;;;6207183;23;20016;-73
2024/03/22 03:21:59;;;;;;;11.48;7.20;;;;;;;;;;6285233;22;20070;-75
2024/03/22 03:24:26;;;;;;;17.13;10.93;;;;;;;;;;6205723;23;20012;-75
2024/03/22 03:26:51;;;;;;;22.73;12.90;;;;;;;;;;6206525;23;20339;-74
2024/03/22 03:29:17;;;;;;;20.38;15.20;;;;;;;;;;6311059;22;20087;-73
2024/03/22 03:31:43;;;;;;;20.27;13.63;;;;;;;;;;6206566;22;20353;-73
2024/03/22 03:34:09;;;;;;;27.15;14.82;;;;;;;;;;6313283;22;20368;-73
2024/03/22 03:36:35;;;;;;;16.38;12.05;;;;;;;;;;6206781;23;20085;-72
2024/03/22 03:39:00;;;;;;;36.63;17.00;;;;;;;;;;6181788;23;20047;-73
2024/03/22 03:41:26;;;;;;;29.67;16.48;;;;;;;;;;6207688;23;20008;-73
2024/03/22 03:43:52;;;;;;;29.55;16.55;;;;;;;;;;6285952;22;20017;-73
2024/03/22 03:46:18;;;;;;;29.25;17.08;;;;;;;;;;6207268;23;20376;-73
2024/03/22 03:48:44;;;;;;;19.60;12.73;;;;;;;;;;6287710;22;20388;-73
2024/03/22 03:51:10;;;;;;;16.95;10.75;;;;;;;;;;6287236;22;20019;-73
2024/03/22 03:53:36;;;;;;;11.80;8.63;;;;;;;;;;6313390;22;20021;-73
2024/03/22 03:56:02;;;;;;;28.55;15.57;;;;;;;;;;6209577;23;20389;-73
2024/03/22 03:58:27;;;;;;;30.15;17.85;;;;;;;;;;6313578;22;20017;-74
2024/03/22 04:00:53;;;;;;;33.10;16.65;;;;;;;;;;6208498;23;20099;-73
2024/03/22 04:03:19;;;;;;;28.80;16.23;;;;;;;;;;6286479;22;20099;-74
2024/03/22 04:05:48;;;;;;;20.15;13.52;;;;;;;;;;6210015;23;20017;-73
2024/03/22 04:08:14;;;;;;;17.38;12.35;;;;;;;;;;6208091;23;20023;-73
2024/03/22 04:10:39;;;;;;;22.25;14.95;;;;;;;;;;6312687;22;20013;-74
2024/03/22 04:13:05;;;;;;;29.08;18.38;;;;;;;;;;6311501;22;20058;-74
2024/03/22 04:15:34;;;;;;;16.35;12.77;;;;;;;;;;6208758;23;20066;-74
2024/03/22 04:18:00;;;;;;;21.88;15.50;;;;;;;;;;6312660;22;20012;-73
2024/03/22 04:20:25;;;;;;;26.13;16.13;;;;;;;;;;6208034;23;20085;-73
2024/03/22 04:22:52;;;;;;;29.30;16.77;;;;;;;;;;6306725;22;20021;-71
2024/03/22 04:25:18;;;;;;;30.85;18.63;;;;;;;;;;6206507;23;20109;-72
2024/03/22 04:27:44;;;;;;;25.73;17.70;;;;;;;;;;6203521;23;20025;-72
2024/03/22 04:30:28;;;;;;;27.77;16.15;;;;;;;;;;6309741;22;20040;-75
2024/03/22 04:32:55;;;;;;;18.20;13.80;;;;;;;;;;6309187;22;20485;-73
2024/03/22 04:35:21;;;;;;;26.10;13.60;;;;;;;;;;6206472;23;20368;-74
2024/03/22 04:37:47;;;;;;;16.65;10.25;;;;;;;;;;6311218;22;20023;-72
2024/03/22 04:40:13;;;;;;;25.85;17.15;;;;;;;;;;6205226;23;20016;-76
2024/03/22 04:42:39;;;;;;;29.85;16.15;;;;;;;;;;6205437;22;20020;-73
2024/03/22 04:45:05;;;;;;;26.33;15.90;;;;;;;;;;6309501;22;20017;-73
2024/03/22 04:47:31;;;;;;;19.10;12.98;;;;;;;;;;6285244;22;20051;-71
2024/03/22 04:49:56;;;;;;;30.88;15.90;;;;;;;;;;6286039;22;20017;-72
2024/03/22 04:52:22;;;;;;;22.70;13.82;;;;;;;;;;6206378;22;20016;-72
2024/03/22 04:54:49;;;;;;;11.35;10.20;;;;;;;;;;6311561;22;20017;-74
2024/03/22 04:57:15;;;;;;;29.02;17.30;;;;;;;;;;6180178;22;20008;-71
2024/03/22 04:59:41;;;;;;;20.08;13.57;;;;;;;;;;6310443;22;20039;-73
2024/03/22 05:02:06;;;;;;;24.55;13.77;;;;;;;;;;6310247;22;20017;-69
2024/03/22 05:04:32;;;;;;;29.67;15.68;;;;;;;;;;6286155;22;20039;-71
2024/03/22 05:06:58;;;;;;;26.20;14.82;;;;;;;;;;6206313;23;20457;-72
2024/03/22 05:09:24;;;;;;;17.15;12.00;;;;;;;;;;6206652;23;20072;-71
2024/03/22 05:11:50;;;;;;;18.70;11.82;;;;;;;;;;6205717;22;20400;-72
2024/03/22 05:14:18;;;;;;;22.15;13.30;;;;;;;;;;6311024;22;20015;-72
2024/03/22 05:16:44;;;;;;;27.15;14.07;;;;;;;;;;6206363;23;20025;-73
2024/03/22 05:19:09;;;;;;;27.58;17.35;;;;;;;;;;6285525;22;20059;-73
2024/03/22 05:21:35;;;;;;;29.02;16.40;;;;;;;;;;6311671;22;20039;-73
2024/03/22 05:24:01;;;;;;;23.23;14.32;;;;;;;;;;6283170;22;20672;-73
2024/03/22 05:26:27;;;;;;;21.48;14.63;;;;;;;;;;6311005;22;20111;-73
2024/03/22 05:28:53;;;;;;;22.13;15.48;;;;;;;;;;6311079;22;20096;-73
2024/03/22 05:31:18;;;;;;;27.10;17.33;;;;;;;;;;6311349;22;20016;-74
2024/03/22 05:33:44;;;;;;;22.48;14.38;;;;;;;;;;6310596;22;20016;-72
2024/03/22 05:36:10;;;;;;;33.05;17.35;;;;;;;;;;6206543;23;20154;-73
2024/03/22 05:38:36;;;;;;;26.50;16.15;;;;;;;;;;6259571;22;20014;-72
2024/03/22 05:41:05;;;;;;;30.75;17.40;;;;;;;;;;6310130;22;20024;-73
2024/03/22 05:43:31;;;;;;;26.13;16.17;;;;;;;;;;6203571;22;20016;-73
2024/03/22 05:45:57;;;;;;;22.10;16.63;;;;;;;;;;6274501;22;20032;-73
2024/03/22 05:48:23;;;;;;;26.75;14.90;;;;;;;;;;6310812;22;20462;-73
2024/03/22 05:50:49;;;;;;;31.30;17.05;;;;;;;;;;6311200;22;20027;-71
2024/03/22 05:53:15;;;;;;;24.95;17.20;;;;;;;;;;6310638;22;20020;-70
2024/03/22 05:55:42;;;;;;;29.65;18.48;;;;;;;;;;6284181;22;20015;-73
2024/03/22 05:58:09;;;;;;;23.60;17.25;;;;;;;;;;6310580;22;20017;-71
2024/03/22 06:00:34;;;;;;;21.05;15.10;;;;;;;;;;6207530;23;20019;-71
2024/03/22 06:05:45;;;;;;;23.67;16.45;;;;;;;;;;6206225;23;20394;-73
2024/03/22 06:08:11;;;;;;;23.70;16.83;;;;;;;;;;6205430;23;20417;-73
2024/03/22 06:10:37;;;;;;;20.00;13.85;;;;;;;;;;6309644;22;20036;-74
2024/03/22 06:13:12;;;;;;;18.50;12.68;;;;;;;;;;6284031;22;20020;-74
2024/03/22 06:15:38;;;;;;;26.98;16.08;;;;;;;;;;6312348;22;20034;-74
2024/03/22 06:18:06;;;;;;;30.30;18.35;;;;;;;;;;6311075;22;20012;-74
2024/03/22 06:20:33;;;;;;;27.55;18.30;;;;;;;;;;6286071;22;20008;-74
2024/03/22 06:22:58;;;;;;;22.23;15.05;;;;;;;;;;6206907;22;20104;-74
2024/03/22 06:25:24;;;;;;;18.95;14.27;;;;;;;;;;6314888;22;20004;-75
2024/03/22 06:27:50;;;;;;;29.98;16.17;;;;;;;;;;6317510;22;20020;-74
2024/03/22 06:30:16;;;;;;;20.88;15.02;;;;;;;;;;6215060;23;20016;-73
2024/03/22 06:32:42;;;;;;;26.45;16.60;;;;;;;;;;6210005;22;20513;-74
2024/03/22 06:35:08;;;;;;;30.92;16.85;;;;;;;;;;6215047;23;20039;-74
2024/03/22 06:37:34;;;;;;;21.17;14.75;;;;;;;;;;6207910;23;20013;-72
2024/03/22 06:40:00;;;;;;;25.50;17.05;;;;;;;;;;6337347;22;20432;-73
2024/03/22 06:42:26;;;;;;;27.75;17.83;;;;;;;;;;6284410;22;20070;-72
2024/03/22 06:44:52;;;;;;;29.33;16.77;;;;;;;;;;6311479;22;20039;-72
2024/03/22 06:47:20;;;;;;;24.50;17.50;;;;;;;;;;6310869;22;20376;-73
2024/03/22 06:49:46;;;;;;;29.92;16.67;;;;;;;;;;6285524;22;20062;-71
2024/03/22 06:52:12;;;;;;;22.50;16.00;;;;;;;;;;6309900;22;20009;-73
2024/03/22 06:54:38;;;;;;;26.98;18.92;;;;;;;;;;6310402;22;20016;-72
2024/03/22 06:57:04;;;;;;;41.30;20.67;;;;;;;;;;6285479;22;20012;-72
2024/03/22 06:59:30;;;;;;;25.00;18.40;;;;;;;;;;6310587;22;20012;-71
2024/03/22 07:01:56;;;;;;;26.80;17.55;;;;;;;;;;6205527;22;20510;-72
2024/03/22 07:04:22;;;;;;;25.35;17.40;;;;;;;;;;6233739;22;20479;-73
2024/03/22 07:06:48;;;;;;;30.75;16.25;;;;;;;;;;6311994;22;20021;-72
2024/03/22 07:09:14;;;;;;;25.05;16.48;;;;;;;;;;6206664;23;20070;-73
2024/03/22 07:11:40;;;;;;;23.10;14.68;;;;;;;;;;6207494;23;20508;-73
2024/03/22 07:14:06;;;;;;;29.42;17.17;;;;;;;;;;6312265;22;20040;-73
2024/03/22 07:16:32;;;;;;;26.65;17.55;;;;;;;;;;6287719;22;20019;-72
2024/03/22 07:18:58;;;;;;;24.88;17.02;;;;;;;;;;6311411;22;20491;-72
2024/03/22 07:21:24;;;;;;;23.92;16.33;;;;;;;;;;6312849;22;20017;-72
2024/03/22 07:23:50;;;;;;;26.25;16.75;;;;;;;;;;6285778;22;20468;-72
2024/03/22 07:26:18;;;;;;;26.25;16.55;;;;;;;;;;6312633;22;20032;-72
2024/03/22 07:28:44;;;;;;;29.92;17.65;;;;;;;;;;6312582;22;20019;-72
2024/03/22 07:31:10;;;;;;;24.88;15.82;;;;;;;;;;6287186;22;20016;-71
2024/03/22 07:33:36;;;;;;;26.67;17.42;;;;;;;;;;6311234;22;20013;-70
2024/03/22 07:36:07;;;;;;;27.25;16.73;;;;;;;;;;6287227;22;20038;-72
2024/03/22 07:38:38;;;;;;;25.40;17.45;;;;;;;;;;6311990;22;20016;-71
2024/03/22 07:41:04;;;;;;;24.00;16.08;;;;;;;;;;6287283;22;20020;-72
2024/03/22 07:43:32;;;;;;;24.58;16.40;;;;;;;;;;6191131;22;20043;-72
2024/03/22 07:45:58;;;;;;;20.05;14.95;;;;;;;;;;6312052;22;20024;-72
2024/03/22 07:48:24;;;;;;;42.13;17.70;;;;;;;;;;6207225;23;20017;-73
2024/03/22 07:50:59;;;;;;;24.45;15.90;;;;;;;;;;6312722;22;20020;-72
2024/03/22 07:53:25;;;;;;;22.17;15.48;;;;;;;;;;6285951;22;20017;-73
2024/03/22 07:55:51;;;;;;;22.63;15.10;;;;;;;;;;6338991;22;20066;-72
2024/03/22 07:58:17;;;;;;;21.73;15.43;;;;;;;;;;6312258;22;20017;-73
2024/03/22 08:00:43;;;;;;;22.88;14.82;;;;;;;;;;6312260;22;20043;-71
2024/03/22 08:03:13;;;;;;;28.80;16.33;;;;;;;;;;6310866;22;20016;-72
2024/03/22 08:05:39;;;;;;;24.80;14.50;;;;;;;;;;6207845;23;20012;-72
2024/03/22 08:08:08;;;;;;;21.15;10.38;;;;;;;;;;6311567;22;20119;-72
2024/03/22 08:10:37;;;;;;;19.55;11.68;;;;;;;;;;6310238;22;20005;-72
2024/03/22 08:13:03;;;;;;;21.02;12.32;;;;;;;;;;6206733;22;20024;-72
2024/03/22 08:15:32;;;;;;;20.42;12.23;;;;;;;;;;6309671;22;20013;-72
2024/03/22 08:17:58;;;;;;;18.92;11.48;;;;;;;;;;6206384;23;20012;-71
2024/03/22 08:20:24;;;;;;;18.40;10.82;;;;;;;;;;6207810;23;20406;-71
2024/03/22 08:22:50;;;;;;;20.20;12.02;;;;;;;;;;6285056;22;20013;-72
2024/03/22 08:25:17;;;;;;;21.27;12.48;;;;;;;;;;6313367;22;20013;-73
2024/03/22 08:27:45;;;;;;;18.40;11.77;;;;;;;;;;6311549;22;20028;-72
2024/03/22 08:30:11;;;;;;;20.98;11.18;;;;;;;;;;6207143;23;20016;-73
2024/03/22 08:32:39;;;;;;;24.08;11.38;;;;;;;;;;6334489;22;20095;-72
2024/03/22 08:35:05;;;;;;;17.35;10.77;;;;;;;;;;6312044;22;20036;-72
2024/03/22 08:37:32;;;;;;;13.68;11.35;;;;;;;;;;6207276;23;20525;-72
2024/03/22 08:39:58;;;;;;;21.65;11.73;;;;;;;;;;6310442;22;20035;-71
2024/03/22 08:42:24;;;;;;;15.07;11.02;;;;;;;;;;6285407;22;20013;-72
2024/03/22 08:44:50;;;;;;;16.27;9.93;;;;;;;;;;6207609;23;20480;-71
2024/03/22 08:47:16;;;;;;;15.75;10.90;;;;;;;;;;6311043;22;20025;-73
2024/03/22 08:49:45;;;;;;;12.25;10.20;;;;;;;;;;6208135;23;20019;-73
2024/03/22 08:52:12;;;;;;;16.33;10.25;;;;;;;;;;6206192;22;20012;-73
2024/03/22 08:54:37;;;;;;;17.10;9.82;;;;;;;;;;6207752;23;20036;-72
2024/03/22 08:57:04;;;;;;;13.98;9.57;;;;;;;;;;6209827;23;20424;-72
2024/03/22 08:59:30;;;;;;;12.40;10.40;;;;;;;;;;6312973;22;20016;-72
2024/03/22 09:01:55;;;;;;;14.13;10.60;;;;;;;;;;6310978;22;20388;-73
2024/03/22 09:04:21;;;;;;;14.70;8.68;;;;;;;;;;6156196;23;20012;-73
2024/03/22 09:06:47;;;;;;;9.65;8.48;;;;;;;;;;6207198;23;20119;-72
2024/03/22 09:09:15;;;;;;;16.42;10.38;;;;;;;;;;6311820;22;20008;-72
2024/03/22 09:11:43;;;;;;;15.65;9.18;;;;;;;;;;6155014;22;20253;-72
2024/03/22 09:14:08;;;;;;;10.88;8.30;;;;;;;;;;6207695;23;20018;-73
2024/03/22 09:16:34;;;;;;;9.88;8.43;;;;;;;;;;6311570;22;20461;-73
2024/03/22 09:19:00;;;;;;;19.33;10.52;;;;;;;;;;6206710;23;20078;-72
2024/03/22 09:21:26;;;;;;;10.98;8.40;;;;;;;;;;6311820;22;20076;-72
2024/03/22 09:23:52;;;;;;;20.40;9.45;;;;;;;;;;6205912;22;20092;-72
2024/03/22 09:26:18;;;;;;;17.05;8.48;;;;;;;;;;6310441;22;20032;-72
2024/03/22 09:28:47;;;;;;;10.93;8.88;;;;;;;;;;6311431;22;20019;-72
2024/03/22 09:31:13;;;;;;;20.25;10.32;;;;;;;;;;6311205;22;20081;-73
2024/03/22 09:33:39;;;;;;;18.95;9.52;;;;;;;;;;6310680;22;20457;-73
2024/03/22 09:36:05;;;;;;;14.52;11.35;;;;;;;;;;6207062;23;20016;-73
2024/03/22 09:38:32;;;;;;;13.32;10.00;;;;;;;;;;6311578;22;20065;-73
2024/03/22 09:40:58;;;;;;;23.50;9.40;;;;;;;;;;6310800;22;20016;-72
2024/03/22 09:43:24;;;;;;;10.52;8.32;;;;;;;;;;6206215;22;20024;-72
2024/03/22 09:45:50;;;;;;;6.95;5.07;;;;;;;;;;6285662;22;20040;-72
2024/03/22 09:48:19;;;;;;;9.35;7.35;;;;;;;;;;6207167;23;20024;-73
2024/03/22 09:50:48;;;;;;;10.73;7.10;;;;;;;;;;6310239;22;20445;-73
2024/03/22 09:53:18;;;;;;;12.00;7.32;;;;;;;;;;6205106;22;20073;-73
2024/03/22 09:55:48;;;;;;;9.25;6.85;;;;;;;;;;6259744;22;20104;-73
2024/03/22 09:58:19;;;;;;;12.50;7.03;;;;;;;;;;6285378;22;20488;-72
2024/03/22 10:00:48;;;;;;;13.77;6.60;;;;;;;;;;6309131;22;20041;-70
2024/03/22 10:03:15;;;;;;;11.32;5.72;;;;;;;;;;6283778;22;20031;-72
2024/03/22 10:05:41;;;;;;;8.77;5.88;;;;;;;;;;6309701;22;20008;-72
2024/03/22 10:08:09;;;;;;;8.93;6.18;;;;;;;;;;6206618;23;20088;-72
2024/03/22 10:10:35;;;;;;;10.27;7.03;;;;;;;;;;6206754;23;20059;-72
2024/03/22 10:13:01;;;;;;;9.60;6.05;;;;;;;;;;6205145;22;20025;-72
2024/03/22 10:15:27;;;;;;;8.05;5.88;;;;;;;;;;6206887;23;20040;-73
2024/03/22 10:17:56;;;;;;;9.25;6.82;;;;;;;;;;6311241;22;20012;-72
2024/03/22 10:20:21;;;;;;;11.00;7.03;;;;;;;;;;6311240;22;20009;-72
2024/03/22 10:22:58;;;;;;;10.45;6.55;;;;;;;;;;6282197;22;20776;-72
2024/03/22 10:25:24;;;;;;;8.75;7.25;;;;;;;;;;6311804;22;20036;-72
2024/03/22 10:27:50;;;;;;;7.82;6.93;;;;;;;;;;6309630;22;20047;-72
2024/03/22 10:30:19;;;;;;;9.68;6.60;;;;;;;;;;6310947;22;20028;-72
2024/03/22 10:32:46;;;;;;;11.07;7.53;;;;;;;;;;6206109;22;20370;-72
2024/03/22 10:35:12;;;;;;;8.63;6.65;;;;;;;;;;6310411;22;20012;-72
2024/03/22 10:37:41;;;;;;;15.02;7.35;;;;;;;;;;6309095;22;20154;-71
2024/03/22 10:40:08;;;;;;;11.00;6.68;;;;;;;;;;6206060;22;20024;-71
2024/03/22 10:42:37;;;;;;;10.70;6.82;;;;;;;;;;6205936;22;20016;-72
2024/03/22 10:45:04;;;;;;;10.07;7.00;;;;;;;;;;6312079;22;20017;-72
2024/03/22 10:47:31;;;;;;;9.02;7.43;;;;;;;;;;6206322;22;20021;-72
2024/03/22 10:49:59;;;;;;;13.48;6.53;;;;;;;;;;6206288;23;20019;-72
2024/03/22 10:52:25;;;;;;;13.20;5.80;;;;;;;;;;6283346;22;20024;-72
2024/03/22 10:54:50;;;;;;;9.23;6.20;;;;;;;;;;6206541;23;20008;-72
2024/03/22 10:57:16;;;;;;;10.55;6.45;;;;;;;;;;6207108;23;20016;-72
2024/03/22 10:59:54;;;;;;;7.57;6.70;;;;;;;;;;6208964;23;20362;-72
2024/03/22 11:02:19;;;;;;;10.95;6.80;;;;;;;;;;6209951;22;20025;-72
2024/03/22 11:04:53;;;;;;;10.15;7.00;;;;;;;;;;6289902;22;20435;-73
2024/03/22 11:07:25;;;;;;;11.27;6.97;;;;;;;;;;6208676;22;20030;-73
2024/03/22 11:09:55;;;;;;;12.50;7.25;;;;;;;;;;6205972;23;20012;-72
2024/03/22 11:12:21;;;;;;;10.32;6.22;;;;;;;;;;6206094;22;20374;-72
2024/03/22 11:14:51;;;;;;;9.70;6.07;;;;;;;;;;6310849;22;20019;-72
2024/03/22 11:17:17;;;;;;;6.35;5.65;;;;;;;;;;6311131;22;20019;-72
2024/03/22 11:19:43;;;;;;;7.40;5.47;;;;;;;;;;6206821;23;20039;-72
2024/03/22 11:22:09;;;;;;;9.77;6.70;;;;;;;;;;6309383;22;20027;-72
2024/03/22 11:24:37;;;;;;;11.35;6.80;;;;;;;;;;6309105;22;20100;-72
2024/03/22 11:27:03;;;;;;;10.52;7.13;;;;;;;;;;6310191;22;20017;-72
2024/03/22 11:29:29;;;;;;;7.43;6.65;;;;;;;;;;6284999;22;20013;-73
2024/03/22 11:31:55;;;;;;;11.93;6.82;;;;;;;;;;6284292;22;20040;-72
2024/03/22 11:34:20;;;;;;;10.00;6.63;;;;;;;;;;6205983;23;20074;-72
2024/03/22 11:36:46;;;;;;;7.45;5.95;;;;;;;;;;6205624;23;20012;-72
2024/03/22 11:39:13;;;;;;;9.13;6.07;;;;;;;;;;6310977;22;20070;-72
2024/03/22 11:41:39;;;;;;;7.85;6.47;;;;;;;;;;6284599;22;20972;-72
2024/03/22 11:44:05;;;;;;;7.28;6.20;;;;;;;;;;6309051;22;20021;-73
2024/03/22 11:46:31;;;;;;;7.57;6.78;;;;;;;;;;6310523;22;20020;-72
2024/03/22 11:48:57;;;;;;;11.82;7.13;;;;;;;;;;6259191;22;20016;-74
2024/03/22 11:51:23;;;;;;;8.73;7.85;;;;;;;;;;6284661;22;20247;-73
2024/03/22 11:53:53;;;;;;;16.08;7.47;;;;;;;;;;6205891;22;20065;-72
2024/03/22 11:56:20;;;;;;;8.70;6.50;;;;;;;;;;6310850;22;20452;-72
2024/03/22 11:58:49;;;;;;;7.78;6.47;;;;;;;;;;6207571;23;20719;-72
2024/03/22 12:01:15;;;;;;;12.05;6.95;;;;;;;;;;6311485;22;20012;-71
2024/03/22 12:03:43;;;;;;;9.73;6.40;;;;;;;;;;6285619;22;20476;-72
2024/03/22 12:06:09;;;;;;;9.65;6.72;;;;;;;;;;6312741;22;20027;-72
2024/03/22 12:08:38;;;;;;;13.32;5.97;;;;;;;;;;6207041;23;20031;-72
2024/03/22 12:11:06;;;;;;;8.43;6.88;;;;;;;;;;6206480;23;20016;-73
2024/03/22 12:13:32;;;;;;;13.07;7.07;;;;;;;;;;6309051;22;20016;-72
2024/03/22 12:15:58;;;;;;;10.65;6.85;;;;;;;;;;6312115;22;20043;-71
2024/03/22 12:18:27;;;;;;;14.25;6.60;;;;;;;;;;6313342;22;20009;-72
2024/03/22 12:20:53;;;;;;;14.70;7.22;;;;;;;;;;6312281;22;20024;-72
2024/03/22 12:23:20;;;;;;;11.23;6.63;;;;;;;;;;6309576;22;20050;-73
2024/03/22 12:25:46;;;;;;;7.38;6.28;;;;;;;;;;6207214;23;20012;-71
2024/03/22 12:28:12;;;;;;;8.25;6.70;;;;;;;;;;6285698;22;20096;-71
2024/03/22 12:30:39;;;;;;;9.05;6.40;;;;;;;;;;6311258;22;20009;-71
2024/03/22 12:33:10;;;;;;;8.05;6.20;;;;;;;;;;6310923;22;20094;-72
2024/03/22 12:35:36;;;;;;;13.13;5.97;;;;;;;;;;6208426;22;20037;-72
2024/03/22 12:38:02;;;;;;;9.88;6.45;;;;;;;;;;6259874;22;20012;-72
2024/03/22 12:40:29;;;;;;;13.38;6.82;;;;;;;;;;6286249;22;20012;-72
2024/03/22 12:42:54;;;;;;;10.15;6.28;;;;;;;;;;6310713;22;20091;-73
2024/03/22 12:45:20;;;;;;;4.93;4.50;;;;;;;;;;6207309;23;20454;-73
2024/03/22 12:47:46;;;;;;;14.20;5.80;;;;;;;;;;6332742;22;20029;-73
2024/03/22 12:50:13;;;;;;;10.07;5.80;;;;;;;;;;6333422;22;20081;-72
2024/03/22 12:52:39;;;;;;;6.68;5.25;;;;;;;;;;6331519;22;20018;-72
2024/03/22 12:55:06;;;;;;;8.98;5.57;;;;;;;;;;6333027;22;20014;-72
2024/03/22 12:57:50;;;;;;;6.80;4.95;;;;;;;;;;6333628;22;20101;-72
2024/03/22 13:00:19;;;;;;;9.60;5.70;;;;;;;;;;6333430;22;20007;-72
2024/03/22 13:02:46;;;;;;;11.77;6.50;;;;;;;;;;6306038;22;20023;-73
2024/03/22 13:05:12;;;;;;;11.80;6.10;;;;;;;;;;6331669;22;20007;-73
2024/03/22 13:07:38;;;;;;;9.57;6.25;;;;;;;;;;6334065;22;20076;-71
2024/03/22 13:10:05;;;;;;;11.35;6.00;;;;;;;;;;6333064;22;20452;-71
2024/03/22 13:12:31;;;;;;;10.60;6.43;;;;;;;;;;6333456;22;20026;-73
2024/03/22 13:14:57;;;;;;;7.00;6.28;;;;;;;;;;6307932;22;20010;-72
2024/03/22 13:17:23;;;;;;;10.23;7.20;;;;;;;;;;6333579;22;20015;-72
2024/03/22 13:19:49;;;;;;;10.77;7.00;;;;;;;;;;6333384;22;20006;-72
2024/03/22 13:22:18;;;;;;;11.90;6.85;;;;;;;;;;6304055;22;20068;-73
2024/03/22 13:24:47;;;;;;;11.20;6.78;;;;;;;;;;6305671;22;20278;-72
2024/03/22 13:27:14;;;;;;;9.25;6.07;;;;;;;;;;6306917;22;20046;-72
2024/03/22 13:29:40;;;;;;;10.93;6.85;;;;;;;;;;6334266;22;20018;-72
2024/03/22 13:32:07;;;;;;;11.05;6.90;;;;;;;;;;6334201;22;20015;-73
2024/03/22 13:34:36;;;;;;;8.57;6.20;;;;;;;;;;6333311;22;20011;-72
2024/03/22 13:37:02;;;;;;;17.52;6.60;;;;;;;;;;6306611;22;20489;-73
2024/03/22 13:39:30;;;;;;;12.75;7.68;;;;;;;;;;6334479;22;20466;-72
2024/03/22 13:41:56;;;;;;;11.55;6.63;;;;;;;;;;6332924;22;20010;-72
2024/03/22 13:44:22;;;;;;;9.45;7.55;;;;;;;;;;6335376;22;20007;-73
2024/03/22 13:46:51;;;;;;;7.95;6.28;;;;;;;;;;6333344;22;20347;-71
2024/03/22 13:49:17;;;;;;;11.65;5.78;;;;;;;;;;6334779;22;20011;-72
2024/03/22 13:52:02;;;;;;;9.23;6.25;;;;;;;;;;6332656;22;20014;-71
2024/03/22 13:54:28;;;;;;;16.65;6.93;;;;;;;;;;6335318;22;20017;-75
2024/03/22 13:56:54;;;;;;;8.73;6.85;;;;;;;;;;6307300;22;20011;-72
2024/03/22 13:59:20;;;;;;;11.15;5.75;;;;;;;;;;6333436;22;20018;-73
2024/03/22 14:01:47;;;;;;;10.40;7.45;;;;;;;;;;6331847;22;20046;-71
2024/03/22 14:04:14;;;;;;;9.73;6.05;;;;;;;;;;6332705;22;20477;-72
2024/03/22 14:06:41;;;;;;;7.88;6.20;;;;;;;;;;6332403;22;20409;-72
2024/03/22 14:09:10;;;;;;;13.45;7.18;;;;;;;;;;6306800;22;20013;-72
2024/03/22 14:11:36;;;;;;;9.70;6.90;;;;;;;;;;6332732;22;20011;-72
2024/03/22 14:14:02;;;;;;;10.27;7.13;;;;;;;;;;6333242;22;20014;-72
2024/03/22 14:16:28;;;;;;;11.35;7.28;;;;;;;;;;6280584;22;20022;-72
2024/03/22 14:18:54;;;;;;;6.55;5.63;;;;;;;;;;6332634;22;20010;-72
2024/03/22 14:21:20;;;;;;;12.77;7.10;;;;;;;;;;6333404;22;20014;-72
2024/03/22 14:23:46;;;;;;;12.25;7.75;;;;;;;;;;6279346;22;20030;-71